Local Weather
17097
page-template-default,page,page-id-17097,bridge-core-1.0.4,ajax_fade,page_not_loaded,,hide_top_bar_on_mobile_header,qode-child-theme-ver-1.0.0,qode-theme-ver-18.0.9,qode-theme-bridge,qode_header_in_grid,wpb-js-composer js-comp-ver-4.11.2.1,vc_responsive
 

LOCAL WEATHER

METAR & TAF for EGTK Oxford

Available data for EGTK from the past hour
OXFORD
Metar
EGTK 301720Z 18015KT 9999 -RA SCT011 OVC014 14/13 Q1001 RERA

17:20 UTC

Wind: 180° 15kt

Visibility: 9999 m

Sky: SCT 1100 ft

Temp: 14 deg C / 57.2 deg F

Dewpoint: 13 deg C / 55.4 deg F

Pressure: 1001 hPa

TAF
TAF EGTK 301404Z 3015/3020 18012KT 9999 SCT015 TEMPO 3015/3018 7000 RA BKN012 PROB30 TEMPO 3015/3018 19015G25KT 3000 +RA RADZ BKN008 PROB30 TEMPO 3018/3020 7000 SHRA BKN012